createdAt,value
2023-02-11T00:01:39.239Z,11.16
2023-02-11T00:04:09.254Z,10.26
2023-02-11T00:06:39.287Z,13
2023-02-11T00:11:39.327Z,20.31
2023-02-11T00:14:09.342Z,14.18
2023-02-11T00:16:39.426Z,13.91
2023-02-11T00:19:09.388Z,12.94
2023-02-11T00:21:39.411Z,12.95
2023-02-11T00:24:09.456Z,15.01
2023-02-11T00:26:39.474Z,12.66
2023-02-11T00:29:09.511Z,12.07
2023-02-11T00:31:39.789Z,9.96
2023-02-11T00:34:09.543Z,8.26
2023-02-11T00:36:39.551Z,12.54
2023-02-11T00:39:09.589Z,16.76
2023-02-11T00:41:39.590Z,14.04
2023-02-11T00:44:09.625Z,17.38
2023-02-11T00:46:39.824Z,11.55
2023-02-11T00:49:09.700Z,14.09
2023-02-11T00:51:39.713Z,10.43
2023-02-11T00:54:09.703Z,15.8
2023-02-11T00:59:09.765Z,17.46
2023-02-11T01:01:39.843Z,14.02
2023-02-11T01:04:09.819Z,11.63
2023-02-11T01:09:09.869Z,8.91
2023-02-11T01:11:39.878Z,7.81
2023-02-11T01:14:09.895Z,11.98
2023-02-11T01:19:09.975Z,9.11
2023-02-11T01:21:40.008Z,8.02
2023-02-11T01:26:40.080Z,9.9
2023-02-11T01:29:10.117Z,9.47
2023-02-11T01:31:40.101Z,8.97
2023-02-11T01:34:10.148Z,9.01
2023-02-11T01:36:40.145Z,8.3
2023-02-11T01:39:10.171Z,8.23
2023-02-11T01:41:40.176Z,6.36
2023-02-11T01:44:10.182Z,7.37
2023-02-11T01:46:40.249Z,7.24
2023-02-11T01:49:10.423Z,8.08
2023-02-11T01:51:40.257Z,9.62
2023-02-11T01:54:10.298Z,10.57
2023-02-11T01:56:40.310Z,9.45
2023-02-11T01:59:10.333Z,6.97
2023-02-11T02:01:40.513Z,7.45
2023-02-11T02:04:10.380Z,8.81
2023-02-11T02:06:40.393Z,11.69
2023-02-11T02:09:10.418Z,9.69
2023-02-11T02:14:10.459Z,15.83
2023-02-11T02:19:10.520Z,20.98
2023-02-11T02:21:40.538Z,16.41
2023-02-11T02:24:12.585Z,11.58
2023-02-11T02:26:40.589Z,18.14
2023-02-11T02:29:10.626Z,13.01
2023-02-11T02:31:40.719Z,11.74
2023-02-11T02:34:10.655Z,11.42
2023-02-11T02:36:40.683Z,12.75
2023-02-11T02:39:10.724Z,8.09
2023-02-11T02:41:40.720Z,7.73
2023-02-11T02:46:40.889Z,8.17
2023-02-11T02:49:10.809Z,9.02
2023-02-11T02:51:40.830Z,8.62
2023-02-11T02:54:10.866Z,10.29
2023-02-11T02:56:40.870Z,8.18
2023-02-11T02:59:10.899Z,8.06
2023-02-11T03:01:40.938Z,13.42
2023-02-11T03:06:40.972Z,8.6
2023-02-11T03:14:11.047Z,9.65
2023-02-11T03:16:41.145Z,8.73
2023-02-11T03:19:11.094Z,15.88
2023-02-11T03:21:41.122Z,13.48
2023-02-11T03:24:11.172Z,16.37
2023-02-11T03:26:41.172Z,22.26
2023-02-11T03:29:11.190Z,15.33
2023-02-11T03:31:41.393Z,11.68
2023-02-11T03:36:41.237Z,7.25
2023-02-11T03:39:11.259Z,8.77
2023-02-11T03:41:41.287Z,8.2
2023-02-11T03:44:11.310Z,9.12
2023-02-11T03:46:41.363Z,8.1
2023-02-11T03:49:11.380Z,8.1
2023-02-11T03:51:41.387Z,6.81
2023-02-11T03:54:11.421Z,7.36
2023-02-11T03:56:41.446Z,14.91
2023-02-11T04:04:11.498Z,10.61
2023-02-11T04:06:41.540Z,10.89
2023-02-11T04:09:11.565Z,14.47
2023-02-11T04:14:11.606Z,9.86
2023-02-11T04:16:41.806Z,8.48
2023-02-11T04:19:11.667Z,10.9
2023-02-11T04:26:41.735Z,14.14
2023-02-11T04:29:11.759Z,18.03
2023-02-11T04:34:11.802Z,14.57
2023-02-11T04:36:41.824Z,19.52
2023-02-11T04:39:11.898Z,15.23
2023-02-11T04:41:41.873Z,19.18
2023-02-11T04:44:11.894Z,13.44
2023-02-11T04:46:41.913Z,22.85
2023-02-11T04:49:11.945Z,21.08
2023-02-11T04:54:11.993Z,17.32
2023-02-11T04:56:41.997Z,14.85
2023-02-11T04:59:12.046Z,21.9
2023-02-11T05:01:42.131Z,16.84
2023-02-11T05:04:12.152Z,16.53
2023-02-11T05:06:42.095Z,18.14
2023-02-11T05:09:12.132Z,15.12
2023-02-11T05:14:12.168Z,12.43
2023-02-11T05:21:53.150Z,13.74
2023-02-11T05:26:42.290Z,18.66
2023-02-11T05:29:12.305Z,19.28
2023-02-11T05:31:42.334Z,18.41
2023-02-11T05:34:12.363Z,17.23
2023-02-11T05:36:42.374Z,15.34
2023-02-11T05:39:12.509Z,20.4
2023-02-11T05:41:42.431Z,19.06
2023-02-11T05:44:12.448Z,16.02
2023-02-11T05:46:42.572Z,20.77
2023-02-11T05:49:12.496Z,22.74
2023-02-11T05:51:42.515Z,18.51
2023-02-11T05:54:12.550Z,18.17
2023-02-11T05:56:44.468Z,21.49
2023-02-11T05:59:12.611Z,19.3
2023-02-11T06:01:42.614Z,22.87
2023-02-11T06:04:12.633Z,17.71
2023-02-11T06:06:42.675Z,19.98
2023-02-11T06:09:12.702Z,22.78
2023-02-11T06:11:42.746Z,23.5
2023-02-11T06:14:12.733Z,19.46
2023-02-11T06:16:42.761Z,20.89
2023-02-11T06:19:12.788Z,18.07
2023-02-11T06:21:44.419Z,17.03
2023-02-11T06:26:42.845Z,29.53
2023-02-11T06:29:12.902Z,33.4
2023-02-11T06:31:43.095Z,26.87
2023-02-11T06:34:12.931Z,24.18
2023-02-11T06:39:12.987Z,24.38
2023-02-11T06:41:42.984Z,19.42
2023-02-11T06:44:13.012Z,18.69
2023-02-11T06:46:43.089Z,19.8
2023-02-11T06:51:43.083Z,23.03
2023-02-11T06:54:13.132Z,18.58
2023-02-11T06:56:43.130Z,18.05
2023-02-11T06:59:13.161Z,17.34
2023-02-11T07:01:43.381Z,21.62
2023-02-11T07:04:13.200Z,20.55
2023-02-11T07:09:13.300Z,18.06
2023-02-11T07:11:43.271Z,16.62
2023-02-11T07:14:13.316Z,17.7
2023-02-11T07:19:13.353Z,17.92
2023-02-11T07:21:43.406Z,17.97
2023-02-11T07:24:13.396Z,16.65
2023-02-11T07:26:43.415Z,17.44
2023-02-11T07:29:13.453Z,21.33
2023-02-11T07:31:43.683Z,18.8
2023-02-11T07:34:13.494Z,19.65
2023-02-11T07:39:13.532Z,22.73
2023-02-11T07:41:43.595Z,21.65
2023-02-11T07:44:13.593Z,19.69
2023-02-11T07:46:43.688Z,21.25
2023-02-11T07:56:43.706Z,26.17
2023-02-11T07:59:13.716Z,23.99
2023-02-11T08:01:43.788Z,28.88
2023-02-11T08:06:43.800Z,37.55
2023-02-11T08:09:13.852Z,33.31
2023-02-11T08:11:43.849Z,30.49
2023-02-11T08:14:13.862Z,25.58
2023-02-11T08:21:43.947Z,19.55
2023-02-11T08:24:13.950Z,20.55
2023-02-11T08:26:43.988Z,20.69
2023-02-11T08:31:44.233Z,26.81
2023-02-11T08:34:14.063Z,29.06
2023-02-11T08:36:44.087Z,25.32
2023-02-11T08:39:19.782Z,27.24
2023-02-11T08:41:44.119Z,24.81
2023-02-11T08:44:14.165Z,24.81
2023-02-11T08:49:14.219Z,23.24
2023-02-11T08:54:14.261Z,21.16
2023-02-11T08:56:44.264Z,24.65
2023-02-11T08:59:14.300Z,19.75
2023-02-11T09:06:44.373Z,28.4
2023-02-11T09:09:14.394Z,26.85
2023-02-11T09:11:44.427Z,21.98
2023-02-11T09:19:18.828Z,16.47
2023-02-11T09:21:48.878Z,16.54
2023-02-11T09:24:18.888Z,17.4
2023-02-11T09:26:48.916Z,24.13
2023-02-11T09:29:18.919Z,27.13
2023-02-11T09:31:49.173Z,28.79
2023-02-11T09:34:18.976Z,24.79
2023-02-11T09:36:49.038Z,26.5
2023-02-11T09:39:19.019Z,19.5
2023-02-11T09:41:49.054Z,21.57
2023-02-11T09:44:19.069Z,20.75
2023-02-11T09:46:49.106Z,22.98
2023-02-11T09:51:49.161Z,21.32
2023-02-11T09:54:19.194Z,23.57
2023-02-11T09:56:49.181Z,19.99
2023-02-11T10:01:49.337Z,22.05
2023-02-11T10:04:19.339Z,24.33
2023-02-11T10:06:49.271Z,21.98
2023-02-11T10:09:19.321Z,19.08
2023-02-11T10:11:49.329Z,17.17
2023-02-11T10:14:19.346Z,18.94
2023-02-11T10:16:49.364Z,20.07
2023-02-11T10:19:19.387Z,18.92
2023-02-11T10:21:49.419Z,18.87
2023-02-11T10:24:19.442Z,19.1
2023-02-11T10:26:49.482Z,18.1
2023-02-11T10:29:19.488Z,16.43
2023-02-11T10:34:19.570Z,19.1
2023-02-11T10:36:49.565Z,19.99
2023-02-11T10:39:19.592Z,17.11
2023-02-11T10:41:49.608Z,17.83
2023-02-11T10:44:19.774Z,16.82
2023-02-11T10:46:49.732Z,16.69
2023-02-11T10:51:49.696Z,16.62
2023-02-11T10:54:19.715Z,13.68
2023-02-11T10:56:49.823Z,14
2023-02-11T11:01:49.856Z,20.59
2023-02-11T11:04:19.898Z,17.7
2023-02-11T11:06:49.896Z,14.53
2023-02-11T11:14:19.910Z,12.52
2023-02-11T11:16:49.934Z,11.39
2023-02-11T11:24:20.028Z,11.92
2023-02-11T11:26:50.088Z,13.65
2023-02-11T11:29:20.059Z,14.04
2023-02-11T11:34:20.127Z,11.6
2023-02-11T11:39:20.148Z,10.22
2023-02-11T11:41:50.158Z,8.91
2023-02-11T11:44:20.213Z,9.01
2023-02-11T11:46:50.268Z,12.11
2023-02-11T11:51:50.255Z,10.72
2023-02-11T11:54:20.319Z,9.86
2023-02-11T11:59:20.313Z,8.8
2023-02-11T12:01:50.410Z,9.86
2023-02-11T12:04:20.380Z,9.67
2023-02-11T12:06:50.416Z,9.5
2023-02-11T12:09:20.420Z,9.01
2023-02-11T12:11:50.453Z,9.22
2023-02-11T12:16:50.583Z,9.82
2023-02-11T12:19:20.498Z,10.59
2023-02-11T12:21:51.058Z,18.1
2023-02-11T12:26:55.373Z,11.63
2023-02-11T12:29:20.686Z,9.59
2023-02-11T12:31:50.926Z,9.42
2023-02-11T12:34:20.706Z,8.9
2023-02-11T12:39:20.712Z,10.07
2023-02-11T12:41:50.735Z,9.18
2023-02-11T12:46:50.796Z,8.48
2023-02-11T12:49:20.804Z,10.41
2023-02-11T12:51:50.966Z,8.37
2023-02-11T12:54:20.867Z,8.62
2023-02-11T12:59:20.893Z,9.56
2023-02-11T13:04:20.950Z,8.47
2023-02-11T13:06:50.970Z,8.9
2023-02-11T13:09:21.001Z,9.35
2023-02-11T13:11:51.009Z,8.5
2023-02-11T13:21:51.095Z,5.52
2023-02-11T13:29:21.168Z,6.76
2023-02-11T13:39:21.261Z,5.87
2023-02-11T13:41:52.751Z,5.26
2023-02-11T13:44:21.298Z,5.26
2023-02-11T13:46:51.322Z,6.46
2023-02-11T13:49:21.370Z,7.92
2023-02-11T13:51:51.391Z,6.09
2023-02-11T13:54:21.409Z,6.14
2023-02-11T13:56:51.440Z,10.71
2023-02-11T13:59:21.512Z,8.19
2023-02-11T14:06:51.520Z,6.08
2023-02-11T14:09:21.556Z,6.29
2023-02-11T14:11:51.577Z,6.3
2023-02-11T14:16:51.678Z,5.43
2023-02-11T14:19:21.665Z,5.09
2023-02-11T14:21:51.676Z,4.64
2023-02-11T14:24:21.713Z,6.2
2023-02-11T14:29:21.740Z,11.14
2023-02-11T14:31:51.904Z,7.43
2023-02-11T14:34:21.799Z,6.5
2023-02-11T14:36:51.841Z,6.32
2023-02-11T14:44:21.901Z,6.48
2023-02-11T14:46:51.906Z,6.05
2023-02-11T14:54:21.972Z,4.34
2023-02-11T14:56:52.005Z,4.55
2023-02-11T14:59:22.047Z,5.67
2023-02-11T15:01:52.143Z,6.34
2023-02-11T15:06:52.106Z,4.69
2023-02-11T15:14:22.168Z,3.47
2023-02-11T15:16:52.196Z,4.77
2023-02-11T15:24:22.270Z,4.93
2023-02-11T15:26:52.289Z,5.37
2023-02-11T15:31:52.449Z,6.78
2023-02-11T15:36:52.486Z,5.91
2023-02-11T15:39:22.438Z,6.79
2023-02-11T15:44:22.458Z,5.06
2023-02-11T15:49:22.513Z,4.91
2023-02-11T15:51:52.533Z,4.02
2023-02-11T15:54:22.549Z,4.69
2023-02-11T16:01:52.767Z,4.56
2023-02-11T16:06:52.676Z,4.52
2023-02-11T16:14:22.807Z,5.36
2023-02-11T16:21:52.824Z,4.72
2023-02-11T16:31:52.928Z,4.39
2023-02-11T16:34:22.922Z,7.41
2023-02-11T16:46:53.118Z,6.6
2023-02-11T16:54:23.147Z,8.23
2023-02-11T16:56:53.145Z,6.58
2023-02-11T17:01:53.222Z,5.87
2023-02-11T17:04:23.335Z,5.88
2023-02-11T17:06:53.263Z,6.64
2023-02-11T17:09:23.292Z,5.75
2023-02-11T17:11:53.273Z,9.25
2023-02-11T17:19:23.329Z,5.93
2023-02-11T17:24:23.389Z,7.46
2023-02-11T17:29:23.449Z,5.6
2023-02-11T17:39:23.534Z,10.17
2023-02-11T17:41:53.565Z,7.54
2023-02-11T17:46:53.606Z,8.11
2023-02-11T17:51:53.641Z,7.61
2023-02-11T17:54:23.672Z,6.35
2023-02-11T17:56:55.163Z,5.73
2023-02-11T17:59:23.718Z,6.59
2023-02-11T18:04:23.861Z,6.76
2023-02-11T18:19:23.918Z,11.49
2023-02-11T18:24:23.967Z,9.26
2023-02-11T18:26:53.976Z,9.77
2023-02-11T18:31:54.127Z,9.05
2023-02-11T18:34:24.060Z,10.39
2023-02-11T18:41:54.171Z,10.23
2023-02-11T18:51:54.221Z,7.41
2023-02-11T18:54:24.264Z,12.17
2023-02-11T19:01:54.611Z,10.79
2023-02-11T19:06:54.370Z,9.99
2023-02-11T19:11:54.628Z,10.3
2023-02-11T19:16:54.574Z,8.18
2023-02-11T19:24:24.527Z,10.97
2023-02-11T19:26:54.590Z,9.92
2023-02-11T19:31:54.787Z,10.82
2023-02-11T19:34:24.633Z,9.31
2023-02-11T19:39:24.739Z,9.36
2023-02-11T19:44:24.715Z,9.19
2023-02-11T19:54:24.809Z,8.75
2023-02-11T19:59:24.859Z,7.81
2023-02-11T20:01:55.025Z,8.94
2023-02-11T20:09:24.961Z,10.47
2023-02-11T20:11:54.990Z,9.79
2023-02-11T20:14:27.508Z,9.41
2023-02-11T20:16:55.029Z,10.22
2023-02-11T20:19:25.087Z,9.88
2023-02-11T20:24:25.235Z,10.67
2023-02-11T20:26:55.177Z,10.88
2023-02-11T20:29:25.151Z,10.12
2023-02-11T20:31:55.474Z,9.27
2023-02-11T20:34:25.256Z,9.53
2023-02-11T20:36:55.223Z,11.04
2023-02-11T20:41:55.261Z,10.04
2023-02-11T20:44:25.289Z,12.66
2023-02-11T20:46:55.323Z,12.37
2023-02-11T20:49:25.354Z,14.85
2023-02-11T20:51:55.352Z,12.65
2023-02-11T20:54:25.371Z,10.81
2023-02-11T20:56:55.441Z,12.96
2023-02-11T20:59:25.416Z,13.08
2023-02-11T21:01:55.702Z,10.77
2023-02-11T21:04:25.474Z,10.1
2023-02-11T21:06:55.496Z,9.88
2023-02-11T21:09:25.522Z,10.72
2023-02-11T21:11:55.542Z,11.38
2023-02-11T21:14:25.571Z,13.02
2023-02-11T21:19:25.633Z,10.91
2023-02-11T21:21:55.642Z,10.8
2023-02-11T21:24:25.693Z,10.62
2023-02-11T21:26:55.695Z,14.61
2023-02-11T21:29:25.701Z,13.09
2023-02-11T21:31:55.841Z,11.8
2023-02-11T21:36:55.776Z,9.4
2023-02-11T21:39:25.795Z,9.26
2023-02-11T21:41:55.833Z,10.74
2023-02-11T21:46:55.965Z,11.51
2023-02-11T21:49:25.933Z,11.65
2023-02-11T21:51:55.929Z,11.58
2023-02-11T21:54:25.953Z,11.8
2023-02-11T21:56:56.002Z,12.41
2023-02-11T21:59:26.014Z,14.87
2023-02-11T22:01:56.033Z,10.89
2023-02-11T22:04:26.069Z,11.04
2023-02-11T22:06:56.070Z,10.64
2023-02-11T22:09:26.092Z,10.67
2023-02-11T22:11:56.120Z,11.45
2023-02-11T22:14:26.165Z,10.44
2023-02-11T22:16:56.208Z,9
2023-02-11T22:19:26.189Z,10.3
2023-02-11T22:21:56.249Z,11.52
2023-02-11T22:24:26.268Z,12.41
2023-02-11T22:26:56.288Z,12.14
2023-02-11T22:29:26.287Z,12.38
2023-02-11T22:31:56.346Z,9.81
2023-02-11T22:34:26.320Z,10.16
2023-02-11T22:36:56.350Z,10.66
2023-02-11T22:39:26.383Z,11.39
2023-02-11T22:41:56.399Z,10.69
2023-02-11T22:44:26.427Z,9.09
2023-02-11T22:46:56.442Z,8.56
2023-02-11T22:49:26.456Z,14.87
2023-02-11T22:51:56.468Z,12.35
2023-02-11T22:54:26.511Z,13.4
2023-02-11T22:56:56.534Z,14.31
2023-02-11T23:01:56.787Z,13.93
2023-02-11T23:04:26.596Z,12.09
2023-02-11T23:06:56.627Z,12.01
2023-02-11T23:09:26.676Z,11.36
2023-02-11T23:11:56.695Z,10.25
2023-02-11T23:14:26.702Z,11.39
2023-02-11T23:16:56.815Z,12.06
2023-02-11T23:19:26.741Z,11.01
2023-02-11T23:21:56.783Z,11.48
2023-02-11T23:24:26.783Z,13.51
2023-02-11T23:26:56.822Z,13.07
2023-02-11T23:29:26.841Z,11.11
2023-02-11T23:31:58.804Z,12.3
2023-02-11T23:34:26.898Z,10.77
2023-02-11T23:36:56.901Z,12.42
2023-02-11T23:39:26.919Z,11.87
2023-02-11T23:41:56.967Z,12.24
2023-02-11T23:44:26.990Z,19.61
2023-02-11T23:46:56.990Z,16.25
2023-02-11T23:49:27.200Z,13.07
2023-02-11T23:51:57.056Z,12.12
2023-02-11T23:54:27.086Z,13.19
2023-02-11T23:56:57.090Z,12.72
2023-02-11T23:59:27.132Z,12.92
